createdAt,value
2018-04-22T00:02:03.794Z,19.43
2018-04-22T00:04:29.723Z,14.30
2018-04-22T00:06:57.439Z,26.83
2018-04-22T00:09:23.349Z,14.63
2018-04-22T00:11:52.415Z,20.83
2018-04-22T00:14:18.323Z,25.03
2018-04-22T00:16:47.909Z,14.10
2018-04-22T00:19:13.815Z,18.17
2018-04-22T00:21:42.750Z,15.33
2018-04-22T00:24:08.621Z,12.33
2018-04-22T00:26:35.770Z,21.33
2018-04-22T00:29:01.627Z,15.90
2018-04-22T00:31:27.531Z,18.57
2018-04-22T00:33:53.421Z,16.50
2018-04-22T00:36:19.352Z,16.20
2018-04-22T00:38:48.311Z,23.83
2018-04-22T00:41:14.235Z,25.43
2018-04-22T00:43:44.103Z,17.37
2018-04-22T00:46:10.031Z,20.30
2018-04-22T00:48:36.938Z,16.23
2018-04-22T00:51:02.852Z,13.00
2018-04-22T00:53:44.507Z,12.40
2018-04-22T00:56:10.430Z,18.53
2018-04-22T00:58:36.367Z,21.23
2018-04-22T01:01:02.286Z,22.43
2018-04-22T01:03:28.187Z,22.73
2018-04-22T01:05:54.091Z,19.93
2018-04-22T01:08:19.994Z,16.47
2018-04-22T01:10:45.929Z,19.23
2018-04-22T01:13:11.847Z,22.37
2018-04-22T01:15:37.743Z,17.43
2018-04-22T01:18:03.679Z,20.97
2018-04-22T01:20:29.567Z,16.13
2018-04-22T01:22:55.462Z,15.77
2018-04-22T01:25:21.807Z,18.27
2018-04-22T01:27:47.691Z,15.40
2018-04-22T01:30:17.313Z,22.77
2018-04-22T01:32:43.183Z,23.27
2018-04-22T01:35:12.718Z,13.97
2018-04-22T01:37:38.615Z,15.90
2018-04-22T01:40:06.455Z,20.90
2018-04-22T01:42:32.398Z,19.10
2018-04-22T01:44:58.320Z,20.73
2018-04-22T01:47:24.193Z,24.50
2018-04-22T01:49:50.072Z,16.43
2018-04-22T01:52:19.642Z,20.67
2018-04-22T01:54:45.676Z,31.00
2018-04-22T01:57:13.516Z,14.80
2018-04-22T01:59:39.443Z,15.03
2018-04-22T02:02:08.988Z,22.57
2018-04-22T02:04:34.879Z,15.60
2018-04-22T02:07:02.219Z,20.83
2018-04-22T02:09:28.153Z,20.80
2018-04-22T02:11:58.065Z,20.87
2018-04-22T02:14:23.969Z,20.27
2018-04-22T02:16:53.205Z,17.63
2018-04-22T02:19:19.088Z,19.70
2018-04-22T02:21:45.035Z,20.37
2018-04-22T02:24:10.916Z,18.90
2018-04-22T02:26:36.804Z,14.13
2018-04-22T02:29:03.576Z,17.17
2018-04-22T02:31:29.465Z,18.27
2018-04-22T02:33:58.616Z,18.97
2018-04-22T02:36:24.476Z,29.40
2018-04-22T02:38:54.299Z,17.20
2018-04-22T02:41:20.196Z,24.10
2018-04-22T02:43:49.197Z,21.70
2018-04-22T02:46:15.080Z,26.67
2018-04-22T02:48:42.857Z,23.83
2018-04-22T02:51:08.792Z,17.10
2018-04-22T02:53:38.027Z,20.17
2018-04-22T02:56:03.947Z,20.17
2018-04-22T02:58:29.860Z,19.30
2018-04-22T03:00:55.749Z,23.13
2018-04-22T03:03:21.635Z,19.23
2018-04-22T03:05:49.304Z,17.47
2018-04-22T03:08:15.235Z,23.55
2018-04-22T03:10:44.178Z,20.30
2018-04-22T03:13:10.086Z,17.83
2018-04-22T03:15:39.227Z,17.93
2018-04-22T03:18:05.133Z,30.85
2018-04-22T03:20:34.300Z,21.50
2018-04-22T03:23:00.193Z,21.87
2018-04-22T03:25:29.123Z,19.00
2018-04-22T03:27:54.987Z,22.77
2018-04-22T03:30:22.328Z,17.33
2018-04-22T03:32:48.211Z,24.08
2018-04-22T03:35:14.143Z,23.20
2018-04-22T03:37:40.063Z,20.50
2018-04-22T03:40:05.964Z,22.30
2018-04-22T03:42:34.031Z,20.50
2018-04-22T03:44:59.944Z,19.17
2018-04-22T03:47:29.256Z,20.27
2018-04-22T03:49:55.172Z,23.10
2018-04-22T03:52:24.393Z,25.30
2018-04-22T03:54:50.275Z,23.23
2018-04-22T03:57:18.303Z,24.13
2018-04-22T03:59:44.220Z,26.08
2018-04-22T04:02:13.663Z,19.90
2018-04-22T04:04:39.546Z,20.95
2018-04-22T04:07:07.346Z,14.63
2018-04-22T04:09:33.318Z,21.98
2018-04-22T04:11:59.185Z,20.50
2018-04-22T04:14:25.064Z,26.30
2018-04-22T04:16:50.970Z,24.03
2018-04-22T04:19:32.307Z,18.57
2018-04-22T04:22:10.545Z,16.70
2018-04-22T04:24:49.663Z,18.67
2018-04-22T04:30:21.311Z,20.62
2018-04-22T04:32:47.231Z,19.20
2018-04-22T04:35:16.295Z,20.97
2018-04-22T04:37:42.167Z,23.52
2018-04-22T04:40:09.330Z,25.00
2018-04-22T04:42:35.227Z,23.30
2018-04-22T04:45:05.016Z,22.60
2018-04-22T04:47:30.931Z,26.23
2018-04-22T04:49:58.584Z,25.87
2018-04-22T04:52:24.481Z,22.55
2018-04-22T04:54:53.347Z,18.90
2018-04-22T04:57:19.234Z,26.73
2018-04-22T04:59:47.978Z,22.10
2018-04-22T05:02:13.871Z,29.15
2018-04-22T05:04:42.752Z,19.10
2018-04-22T05:07:08.658Z,20.10
2018-04-22T05:09:34.517Z,19.57
2018-04-22T05:12:00.456Z,22.73
2018-04-22T05:14:26.795Z,18.60
2018-04-22T05:16:55.782Z,17.37
2018-04-22T05:19:21.659Z,19.90
2018-04-22T05:21:50.820Z,15.77
2018-04-22T05:24:16.731Z,16.08
2018-04-22T05:26:43.956Z,25.80
2018-04-22T05:29:09.863Z,14.82
2018-04-22T05:31:39.009Z,18.30
2018-04-22T05:34:04.965Z,22.75
2018-04-22T05:36:34.347Z,19.93
2018-04-22T05:39:00.246Z,22.77
2018-04-22T05:41:28.327Z,21.10
2018-04-22T05:43:54.213Z,18.40
2018-04-22T05:46:20.115Z,17.60
2018-04-22T05:48:46.049Z,22.27
2018-04-22T05:51:11.941Z,19.93
2018-04-22T05:53:40.958Z,17.00
2018-04-22T05:56:06.840Z,14.93
2018-04-22T05:58:35.943Z,23.67
2018-04-22T06:01:01.862Z,20.13
2018-04-22T06:03:29.832Z,14.73
2018-04-22T06:05:55.826Z,13.87
2018-04-22T06:08:25.548Z,15.43
2018-04-22T06:10:51.397Z,18.93
2018-04-22T06:13:20.427Z,18.47
2018-04-22T06:15:46.331Z,20.13
2018-04-22T06:18:13.356Z,12.93
2018-04-22T06:20:39.217Z,17.17
2018-04-22T06:23:05.112Z,20.13
2018-04-22T06:25:31.015Z,14.57
2018-04-22T06:27:56.951Z,16.33
2018-04-22T06:30:26.154Z,23.83
2018-04-22T06:32:52.062Z,24.30
2018-04-22T06:35:19.968Z,20.73
2018-04-22T06:37:45.942Z,21.47
2018-04-22T06:40:15.381Z,16.10
2018-04-22T06:42:41.348Z,19.57
2018-04-22T06:45:10.396Z,17.33
2018-04-22T06:47:36.291Z,18.83
2018-04-22T06:50:05.508Z,15.00
2018-04-22T06:52:31.424Z,16.97
2018-04-22T06:54:59.232Z,21.40
2018-04-22T06:57:25.139Z,20.10
2018-04-22T06:59:51.021Z,18.27
2018-04-22T07:02:16.889Z,19.13
2018-04-22T07:04:42.791Z,15.93
2018-04-22T07:07:12.036Z,17.60
2018-04-22T07:09:37.985Z,14.63
2018-04-22T07:12:05.132Z,14.40
2018-04-22T07:14:31.032Z,17.27
2018-04-22T07:16:59.975Z,13.90
2018-04-22T07:19:25.927Z,11.10
2018-04-22T07:21:54.926Z,14.87
2018-04-22T07:24:20.871Z,12.87
2018-04-22T07:26:50.399Z,14.23
2018-04-22T07:29:16.280Z,16.07
2018-04-22T07:31:45.380Z,11.00
2018-04-22T07:34:11.276Z,12.70
2018-04-22T07:36:37.171Z,10.00
2018-04-22T07:39:03.101Z,12.43
2018-04-22T07:41:29.025Z,14.10
2018-04-22T07:43:55.475Z,10.47
2018-04-22T07:46:21.441Z,14.23
2018-04-22T07:48:50.196Z,10.87
2018-04-22T07:51:16.059Z,13.20
2018-04-22T07:53:44.893Z,11.23
2018-04-22T07:56:10.816Z,9.43
2018-04-22T07:58:39.636Z,13.57
2018-04-22T08:01:05.543Z,14.73
2018-04-22T08:03:34.410Z,23.63
2018-04-22T08:06:00.281Z,11.50
2018-04-22T08:08:29.053Z,11.60
2018-04-22T08:10:54.944Z,9.60
2018-04-22T08:13:20.819Z,9.57
2018-04-22T08:15:46.752Z,18.93
2018-04-22T08:18:12.643Z,12.93
2018-04-22T08:20:42.583Z,13.93
2018-04-22T08:23:08.470Z,17.40
2018-04-22T08:25:35.852Z,11.97
2018-04-22T08:28:01.848Z,9.00
2018-04-22T08:30:31.434Z,23.23
2018-04-22T08:32:57.359Z,12.90
2018-04-22T08:35:26.711Z,13.73
2018-04-22T08:37:52.613Z,9.07
2018-04-22T08:40:20.248Z,13.13
2018-04-22T08:42:46.167Z,10.03
2018-04-22T08:45:15.347Z,14.67
2018-04-22T08:47:41.257Z,9.50
2018-04-22T08:50:07.134Z,8.80
2018-04-22T08:52:33.040Z,13.70
2018-04-22T08:54:59.149Z,11.10
2018-04-22T08:57:28.148Z,8.10
2018-04-22T08:59:54.010Z,7.10
2018-04-22T09:02:21.021Z,12.93
2018-04-22T09:04:46.977Z,12.93
2018-04-22T09:07:16.091Z,7.80
2018-04-22T09:09:42.177Z,15.03
2018-04-22T09:12:11.466Z,11.90
2018-04-22T09:14:37.362Z,15.90
2018-04-22T09:17:06.901Z,10.30
2018-04-22T09:19:32.787Z,5.53
2018-04-22T09:21:59.890Z,9.33
2018-04-22T09:24:25.862Z,8.70
2018-04-22T09:26:51.760Z,17.37
2018-04-22T09:29:17.670Z,12.50
2018-04-22T09:31:43.591Z,9.67
2018-04-22T09:34:13.376Z,10.50
2018-04-22T09:36:39.492Z,8.20
2018-04-22T09:39:06.323Z,13.53
2018-04-22T09:41:32.310Z,8.10
2018-04-22T09:44:01.783Z,6.07
2018-04-22T09:46:27.673Z,35.10
2018-04-22T09:48:56.855Z,13.67
2018-04-22T09:51:22.792Z,7.50
2018-04-22T09:53:51.895Z,9.57
2018-04-22T09:56:17.799Z,5.50
2018-04-22T09:58:45.000Z,10.40
2018-04-22T10:01:16.901Z,7.77
2018-04-22T10:03:42.784Z,6.57
2018-04-22T10:06:08.663Z,17.87
2018-04-22T10:08:34.555Z,9.30
2018-04-22T10:11:00.432Z,6.20
2018-04-22T10:13:26.338Z,8.40
2018-04-22T10:15:52.266Z,8.67
2018-04-22T10:20:59.072Z,10.23
2018-04-22T10:23:25.045Z,10.73
2018-04-22T10:25:51.012Z,7.23
2018-04-22T10:28:16.928Z,6.13
2018-04-22T10:30:42.817Z,9.60
2018-04-22T10:33:08.718Z,6.57
2018-04-22T10:35:34.677Z,6.67
2018-04-22T10:38:01.380Z,9.00
2018-04-22T10:40:27.375Z,6.17
2018-04-22T10:42:53.420Z,7.10
2018-04-22T10:45:19.316Z,12.63
2018-04-22T10:47:45.235Z,6.07
2018-04-22T10:50:11.110Z,6.87
2018-04-22T10:52:36.981Z,5.70
2018-04-22T10:55:02.890Z,5.60
2018-04-22T10:57:32.554Z,5.40
2018-04-22T10:59:58.466Z,7.83
2018-04-22T11:02:27.728Z,7.10
2018-04-22T11:04:53.632Z,5.27
2018-04-22T11:07:21.210Z,6.83
2018-04-22T11:09:47.095Z,4.80
2018-04-22T11:12:16.409Z,54.37
2018-04-22T11:14:43.037Z,75.50
2018-04-22T11:17:09.052Z,6.33
2018-04-22T11:19:34.962Z,6.70
2018-04-22T11:22:00.963Z,4.03
2018-04-22T11:24:27.502Z,12.40
2018-04-22T11:26:53.448Z,3.97
2018-04-22T11:29:22.943Z,7.30
2018-04-22T11:31:48.851Z,11.33
2018-04-22T11:34:17.956Z,8.80
2018-04-22T11:36:43.845Z,12.33
2018-04-22T11:39:11.553Z,13.33
2018-04-22T11:41:37.457Z,7.00
2018-04-22T11:44:06.892Z,5.20
2018-04-22T11:46:32.827Z,5.57
2018-04-22T11:49:02.150Z,7.67
2018-04-22T11:51:28.090Z,13.10
2018-04-22T11:53:53.983Z,9.40
2018-04-22T11:56:19.869Z,10.63
2018-04-22T11:58:45.854Z,9.67
2018-04-22T12:01:12.932Z,9.00
2018-04-22T12:03:38.840Z,4.63
2018-04-22T12:06:08.362Z,10.80
2018-04-22T12:08:34.260Z,4.23
2018-04-22T12:11:03.664Z,7.27
2018-04-22T12:13:29.595Z,6.33
2018-04-22T12:15:56.690Z,8.53
2018-04-22T12:18:22.603Z,4.60
2018-04-22T12:20:51.539Z,5.67
2018-04-22T12:23:17.463Z,6.70
2018-04-22T12:25:46.279Z,6.73
2018-04-22T12:28:12.171Z,4.57
2018-04-22T12:30:38.090Z,6.13
2018-04-22T12:33:03.953Z,9.23
2018-04-22T12:35:29.900Z,18.30
2018-04-22T12:37:58.894Z,10.33
2018-04-22T12:40:24.816Z,9.10
2018-04-22T12:42:54.655Z,6.07
2018-04-22T12:45:20.547Z,6.30
2018-04-22T12:47:48.276Z,7.20
2018-04-22T12:50:14.195Z,6.90
2018-04-22T12:52:43.363Z,10.03
2018-04-22T12:55:09.289Z,8.40
2018-04-22T12:57:37.088Z,11.03
2018-04-22T13:00:02.998Z,7.70
2018-04-22T13:02:32.256Z,6.67
2018-04-22T13:04:58.131Z,3.60
2018-04-22T13:07:24.146Z,6.73
2018-04-22T13:09:50.051Z,5.93
2018-04-22T13:12:15.950Z,5.90
2018-04-22T13:14:45.771Z,9.20
2018-04-22T13:17:11.840Z,3.03
2018-04-22T13:19:38.872Z,3.67
2018-04-22T13:22:04.751Z,6.23
2018-04-22T13:24:34.339Z,6.27
2018-04-22T13:27:00.261Z,5.20
2018-04-22T13:29:27.299Z,4.17
2018-04-22T13:31:53.212Z,8.57
2018-04-22T13:34:21.963Z,7.47
2018-04-22T13:36:47.880Z,6.77
2018-04-22T13:39:16.703Z,10.63
2018-04-22T13:41:42.571Z,13.90
2018-04-22T13:44:08.572Z,7.00
2018-04-22T13:46:34.631Z,9.10
2018-04-22T13:49:00.569Z,9.50
2018-04-22T13:51:29.835Z,5.60
2018-04-22T13:53:56.230Z,6.70
2018-04-22T13:56:23.343Z,6.50
2018-04-22T13:58:49.248Z,7.20
2018-04-22T14:01:18.074Z,6.40
2018-04-22T14:03:43.979Z,8.60
2018-04-22T14:06:12.779Z,6.07
2018-04-22T14:08:38.661Z,4.83
2018-04-22T14:11:07.432Z,4.13
2018-04-22T14:13:33.316Z,6.97
2018-04-22T14:16:02.754Z,4.50
2018-04-22T14:18:28.709Z,2.90
2018-04-22T14:20:54.603Z,4.57
2018-04-22T14:23:20.523Z,3.70
2018-04-22T14:25:46.453Z,6.37
2018-04-22T14:28:15.812Z,6.10
2018-04-22T14:30:41.758Z,2.73
2018-04-22T14:33:09.261Z,3.67
2018-04-22T14:35:35.175Z,7.73
2018-04-22T14:38:03.439Z,11.83
2018-04-22T14:40:29.395Z,5.63
2018-04-22T14:42:59.011Z,6.37
2018-04-22T14:45:38.068Z,3.17
2018-04-22T14:48:04.403Z,8.57
2018-04-22T14:50:30.328Z,6.13
2018-04-22T14:52:56.253Z,7.13
2018-04-22T14:55:22.193Z,3.50
2018-04-22T14:57:48.162Z,5.07
2018-04-22T15:00:14.044Z,3.10
2018-04-22T15:02:39.961Z,7.53
2018-04-22T15:05:05.858Z,6.27
2018-04-22T15:07:31.772Z,5.47
2018-04-22T15:09:57.632Z,4.30
2018-04-22T15:12:23.540Z,4.73
2018-04-22T15:14:49.439Z,3.47
2018-04-22T15:17:15.397Z,4.07
2018-04-22T15:19:43.757Z,10.90
2018-04-22T15:22:09.645Z,6.03
2018-04-22T15:24:39.304Z,2.40
2018-04-22T15:27:05.221Z,5.00
2018-04-22T15:29:32.727Z,5.80
2018-04-22T15:31:58.662Z,13.90
2018-04-22T15:34:24.591Z,7.87
2018-04-22T15:36:50.513Z,7.20
2018-04-22T15:39:16.407Z,4.87
2018-04-22T15:41:44.963Z,5.43
2018-04-22T15:44:10.837Z,3.40
2018-04-22T15:46:40.816Z,6.13
2018-04-22T15:49:06.773Z,12.07
2018-04-22T15:51:34.383Z,9.30
2018-04-22T15:54:00.331Z,3.70
2018-04-22T15:56:30.222Z,5.00
2018-04-22T15:58:56.099Z,5.70
2018-04-22T16:01:23.496Z,5.00
2018-04-22T16:03:49.443Z,6.30
2018-04-22T16:06:18.852Z,6.50
2018-04-22T16:08:44.778Z,6.57
2018-04-22T16:11:11.047Z,8.50
2018-04-22T16:13:36.926Z,8.67
2018-04-22T16:16:02.902Z,5.13
2018-04-22T16:18:29.689Z,5.50
2018-04-22T16:20:55.608Z,6.10
2018-04-22T16:23:25.070Z,7.23
2018-04-22T16:25:51.236Z,7.77
2018-04-22T16:28:20.877Z,5.03
2018-04-22T16:30:46.760Z,3.47
2018-04-22T16:33:14.065Z,7.70
2018-04-22T16:35:39.962Z,10.80
2018-04-22T16:38:09.420Z,5.53
2018-04-22T16:40:35.344Z,5.23
2018-04-22T16:43:03.255Z,5.20
2018-04-22T16:45:29.210Z,6.87
2018-04-22T16:47:55.099Z,6.40
2018-04-22T16:50:21.172Z,4.83
2018-04-22T16:52:47.076Z,5.57
2018-04-22T16:55:16.283Z,4.83
2018-04-22T16:57:42.209Z,7.43
2018-04-22T17:00:11.723Z,6.73
2018-04-22T17:02:37.592Z,9.33
2018-04-22T17:05:04.438Z,7.90
2018-04-22T17:07:30.337Z,6.03
2018-04-22T17:09:59.052Z,6.87
2018-04-22T17:12:24.919Z,6.90
2018-04-22T17:14:54.147Z,6.07
2018-04-22T17:17:20.075Z,5.97
2018-04-22T17:19:50.367Z,9.60
2018-04-22T17:22:16.688Z,7.63
2018-04-22T17:24:42.588Z,7.10
2018-04-22T17:27:08.516Z,25.57
2018-04-22T17:29:39.314Z,11.20
2018-04-22T17:32:11.202Z,4.63
2018-04-22T17:34:43.016Z,11.70
2018-04-22T17:37:15.267Z,5.50
2018-04-22T17:39:45.425Z,7.30
2018-04-22T17:42:11.959Z,6.50
2018-04-22T17:44:37.916Z,7.53
2018-04-22T17:47:03.844Z,5.17
2018-04-22T17:49:29.921Z,5.10
2018-04-22T17:51:55.799Z,5.10
2018-04-22T17:54:21.679Z,11.70
2018-04-22T17:56:47.611Z,6.20
2018-04-22T17:59:13.550Z,9.40
2018-04-22T18:01:39.491Z,13.43
2018-04-22T18:04:06.877Z,9.03
2018-04-22T18:06:33.115Z,10.53
2018-04-22T18:08:59.023Z,4.70
2018-04-22T18:11:24.898Z,5.97
2018-04-22T18:13:50.841Z,3.63
2018-04-22T18:16:16.758Z,13.13
2018-04-22T18:18:42.695Z,8.80
2018-04-22T18:21:08.879Z,12.00
2018-04-22T18:23:34.783Z,7.60
2018-04-22T18:26:00.687Z,8.87
2018-04-22T18:28:26.611Z,5.40
2018-04-22T18:30:52.483Z,6.63
2018-04-22T18:33:19.742Z,8.83
2018-04-22T18:35:45.639Z,6.30
2018-04-22T18:38:11.535Z,7.00
2018-04-22T18:40:37.428Z,8.33
2018-04-22T18:43:03.395Z,5.30
2018-04-22T18:45:31.232Z,3.90
2018-04-22T18:47:57.123Z,7.17
2018-04-22T18:50:26.439Z,11.03
2018-04-22T18:52:52.320Z,6.07
2018-04-22T18:55:21.592Z,11.00
2018-04-22T18:57:48.019Z,8.10
2018-04-22T19:00:15.688Z,6.77
2018-04-22T19:02:41.597Z,5.00
2018-04-22T19:05:11.218Z,5.37
2018-04-22T19:07:37.149Z,5.50
2018-04-22T19:10:04.773Z,10.10
2018-04-22T19:12:30.716Z,8.30
2018-04-22T19:14:57.059Z,12.87
2018-04-22T19:17:22.954Z,5.80
2018-04-22T19:19:48.872Z,6.17
2018-04-22T19:22:16.897Z,5.30
2018-04-22T19:24:42.949Z,7.10
2018-04-22T19:29:45.490Z,6.00
2018-04-22T19:32:11.395Z,12.93
2018-04-22T19:34:37.339Z,7.40
2018-04-22T19:37:03.247Z,5.20
2018-04-22T19:39:29.165Z,6.57
2018-04-22T19:41:55.035Z,10.73
2018-04-22T19:44:20.937Z,9.83
2018-04-22T19:46:49.917Z,6.33
2018-04-22T19:49:15.839Z,7.50
2018-04-22T19:51:41.736Z,8.50
2018-04-22T19:54:07.808Z,6.80
2018-04-22T19:56:33.736Z,27.77
2018-04-22T19:59:03.227Z,22.93
2018-04-22T20:01:29.159Z,18.10
2018-04-22T20:03:56.971Z,8.03
2018-04-22T20:06:22.884Z,10.87
2018-04-22T20:08:51.922Z,6.73
2018-04-22T20:11:17.831Z,12.80
2018-04-22T20:13:45.763Z,9.33
2018-04-22T20:16:11.645Z,6.60
2018-04-22T20:18:40.416Z,8.00
2018-04-22T20:21:06.411Z,10.93
2018-04-22T20:23:35.727Z,10.20
2018-04-22T20:26:01.609Z,5.00
2018-04-22T20:28:27.566Z,9.87
2018-04-22T20:30:53.442Z,8.20
2018-04-22T20:33:20.342Z,4.47
2018-04-22T20:35:47.646Z,8.17
2018-04-22T20:38:13.595Z,8.77
2018-04-22T20:40:43.148Z,4.90
2018-04-22T20:43:09.195Z,6.27
2018-04-22T20:45:36.691Z,6.40
2018-04-22T20:48:02.635Z,8.03
2018-04-22T20:50:32.067Z,4.10
2018-04-22T20:52:57.990Z,6.00
2018-04-22T20:55:27.555Z,10.70
2018-04-22T20:57:56.683Z,9.73
2018-04-22T21:00:22.569Z,5.37
2018-04-22T21:02:48.520Z,3.80
2018-04-22T21:05:14.420Z,10.83
2018-04-22T21:07:40.366Z,9.87
2018-04-22T21:10:06.314Z,3.10
2018-04-22T21:12:32.266Z,52.60
2018-04-22T21:14:58.211Z,28.33
2018-04-22T21:17:27.376Z,4.93
2018-04-22T21:19:53.323Z,8.50
2018-04-22T21:22:23.263Z,4.77
2018-04-22T21:24:49.200Z,5.10
2018-04-22T21:27:16.859Z,4.97
2018-04-22T21:29:42.768Z,8.63
2018-04-22T21:32:12.670Z,5.63
2018-04-22T21:34:38.588Z,6.60
2018-04-22T21:37:06.017Z,5.90
2018-04-22T21:39:32.142Z,4.97
2018-04-22T21:41:58.060Z,6.70
2018-04-22T21:44:23.988Z,6.97
2018-04-22T21:46:49.884Z,7.60
2018-04-22T21:49:17.529Z,6.60
2018-04-22T21:51:43.421Z,5.90
2018-04-22T21:54:13.604Z,4.63
2018-04-22T21:56:39.510Z,7.97
2018-04-22T21:59:07.204Z,11.10
2018-04-22T22:01:33.106Z,11.00
2018-04-22T22:04:02.703Z,13.20
2018-04-22T22:06:28.623Z,6.90
2018-04-22T22:08:56.415Z,5.17
2018-04-22T22:11:22.345Z,6.97
2018-04-22T22:13:51.907Z,4.63
2018-04-22T22:16:17.837Z,6.43
2018-04-22T22:18:43.763Z,4.17
2018-04-22T22:21:09.637Z,7.57
2018-04-22T22:23:35.531Z,5.43
2018-04-22T22:26:03.003Z,4.93
2018-04-22T22:28:28.963Z,2.87
2018-04-22T22:30:58.427Z,12.40
2018-04-22T22:33:24.519Z,10.00
2018-04-22T22:35:53.751Z,6.07
2018-04-22T22:38:19.611Z,9.87
2018-04-22T22:40:47.369Z,5.83
2018-04-22T22:43:13.303Z,4.20
2018-04-22T22:45:42.420Z,5.93
2018-04-22T22:48:08.332Z,7.43
2018-04-22T22:50:38.078Z,6.60
2018-04-22T22:53:04.006Z,4.00
2018-04-22T22:55:29.899Z,12.10
2018-04-22T22:57:55.750Z,6.93
2018-04-22T23:00:21.638Z,7.63
2018-04-22T23:02:48.591Z,9.10
2018-04-22T23:05:14.499Z,6.90
2018-04-22T23:07:43.918Z,10.10
2018-04-22T23:10:09.837Z,8.37
2018-04-22T23:12:37.751Z,5.90
2018-04-22T23:15:03.663Z,5.63
2018-04-22T23:17:33.137Z,6.70
2018-04-22T23:19:59.051Z,10.63
2018-04-22T23:22:26.842Z,6.97
2018-04-22T23:24:52.743Z,6.13
2018-04-22T23:27:21.639Z,11.17
2018-04-22T23:29:47.600Z,7.60
2018-04-22T23:32:13.467Z,8.50
2018-04-22T23:34:39.351Z,7.53
2018-04-22T23:37:05.283Z,6.73
2018-04-22T23:39:34.187Z,15.47
2018-04-22T23:42:00.205Z,6.73
2018-04-22T23:44:28.165Z,12.13
2018-04-22T23:46:54.088Z,12.00
2018-04-22T23:49:23.588Z,5.17
2018-04-22T23:51:49.491Z,6.10
2018-04-22T23:54:18.519Z,15.67
2018-04-22T23:56:44.503Z,7.13
2018-04-22T23:59:13.815Z,7.23
